sensor_id;sensor_type;location;lat;lon;timestamp;P1;durP1;ratioP1;P2;durP2;ratioP2
22812;SDS011;11573;51.334;3.244;2022-12-18T00:01:19;172.75;;;53.08;;
22812;SDS011;11573;51.334;3.244;2022-12-18T00:03:48;181.73;;;54.10;;
22812;SDS011;11573;51.334;3.244;2022-12-18T00:06:17;163.00;;;53.75;;
22812;SDS011;11573;51.334;3.244;2022-12-18T00:08:44;151.82;;;52.55;;
22812;SDS011;11573;51.334;3.244;2022-12-18T00:11:16;159.98;;;54.72;;
22812;SDS011;11573;51.334;3.244;2022-12-18T00:13:45;167.98;;;55.13;;
22812;SDS011;11573;51.334;3.244;2022-12-18T00:16:13;171.70;;;49.50;;
22812;SDS011;11573;51.334;3.244;2022-12-18T00:18:42;161.68;;;49.20;;
22812;SDS011;11573;51.334;3.244;2022-12-18T00:21:10;155.80;;;51.03;;
22812;SDS011;11573;51.334;3.244;2022-12-18T00:23:38;154.32;;;52.38;;
22812;SDS011;11573;51.334;3.244;2022-12-18T00:26:09;138.60;;;50.28;;
22812;SDS011;11573;51.334;3.244;2022-12-18T00:28:41;146.23;;;51.03;;
22812;SDS011;11573;51.334;3.244;2022-12-18T00:31:13;140.63;;;48.88;;
22812;SDS011;11573;51.334;3.244;2022-12-18T00:33:42;148.07;;;48.33;;
22812;SDS011;11573;51.334;3.244;2022-12-18T00:36:13;167.05;;;49.42;;
22812;SDS011;11573;51.334;3.244;2022-12-18T00:38:42;152.27;;;49.88;;
22812;SDS011;11573;51.334;3.244;2022-12-18T00:41:10;139.98;;;48.20;;
22812;SDS011;11573;51.334;3.244;2022-12-18T00:43:39;161.77;;;51.63;;
22812;SDS011;11573;51.334;3.244;2022-12-18T00:46:06;165.43;;;50.92;;
22812;SDS011;11573;51.334;3.244;2022-12-18T00:48:34;146.93;;;48.03;;
22812;SDS011;11573;51.334;3.244;2022-12-18T00:51:01;136.98;;;47.88;;
22812;SDS011;11573;51.334;3.244;2022-12-18T00:53:28;171.98;;;50.05;;
22812;SDS011;11573;51.334;3.244;2022-12-18T00:55:55;144.65;;;49.03;;
22812;SDS011;11573;51.334;3.244;2022-12-18T00:58:22;140.38;;;46.67;;
22812;SDS011;11573;51.334;3.244;2022-12-18T01:00:49;149.65;;;46.83;;
22812;SDS011;11573;51.334;3.244;2022-12-18T01:03:16;128.15;;;47.78;;
22812;SDS011;11573;51.334;3.244;2022-12-18T01:05:43;132.25;;;47.25;;
22812;SDS011;11573;51.334;3.244;2022-12-18T01:08:10;128.75;;;46.53;;
22812;SDS011;11573;51.334;3.244;2022-12-18T01:10:39;126.00;;;47.13;;
22812;SDS011;11573;51.334;3.244;2022-12-18T01:13:07;129.88;;;45.78;;
22812;SDS011;11573;51.334;3.244;2022-12-18T01:15:34;117.28;;;46.83;;
22812;SDS011;11573;51.334;3.244;2022-12-18T01:18:01;123.47;;;47.83;;
22812;SDS011;11573;51.334;3.244;2022-12-18T01:20:28;127.35;;;46.53;;
22812;SDS011;11573;51.334;3.244;2022-12-18T01:22:55;115.85;;;44.80;;
22812;SDS011;11573;51.334;3.244;2022-12-18T01:25:22;113.88;;;46.20;;
22812;SDS011;11573;51.334;3.244;2022-12-18T01:27:49;119.47;;;46.08;;
22812;SDS011;11573;51.334;3.244;2022-12-18T01:30:16;118.38;;;45.95;;
22812;SDS011;11573;51.334;3.244;2022-12-18T01:32:44;116.88;;;45.58;;
22812;SDS011;11573;51.334;3.244;2022-12-18T01:35:11;120.38;;;46.95;;
22812;SDS011;11573;51.334;3.244;2022-12-18T01:37:38;113.78;;;46.97;;
22812;SDS011;11573;51.334;3.244;2022-12-18T01:40:05;115.50;;;45.05;;
22812;SDS011;11573;51.334;3.244;2022-12-18T01:42:32;123.03;;;47.50;;
22812;SDS011;11573;51.334;3.244;2022-12-18T01:47:49;116.35;;;47.67;;
22812;SDS011;11573;51.334;3.244;2022-12-18T01:52:53;114.43;;;44.22;;
22812;SDS011;11573;51.334;3.244;2022-12-18T01:55:23;106.93;;;43.70;;
22812;SDS011;11573;51.334;3.244;2022-12-18T01:57:54;122.50;;;46.47;;
22812;SDS011;11573;51.334;3.244;2022-12-18T02:00:23;118.15;;;46.33;;
22812;SDS011;11573;51.334;3.244;2022-12-18T02:02:51;110.60;;;45.00;;
22812;SDS011;11573;51.334;3.244;2022-12-18T02:08:41;113.45;;;45.45;;
22812;SDS011;11573;51.334;3.244;2022-12-18T02:11:19;105.60;;;43.88;;
22812;SDS011;11573;51.334;3.244;2022-12-18T02:16:37;111.35;;;45.58;;
22812;SDS011;11573;51.334;3.244;2022-12-18T02:24:42;103.88;;;45.70;;
22812;SDS011;11573;51.334;3.244;2022-12-18T02:27:39;106.13;;;45.55;;
22812;SDS011;11573;51.334;3.244;2022-12-18T02:30:08;98.07;;;44.40;;
22812;SDS011;11573;51.334;3.244;2022-12-18T02:32:38;102.03;;;43.20;;
22812;SDS011;11573;51.334;3.244;2022-12-18T02:35:10;102.57;;;45.05;;
22812;SDS011;11573;51.334;3.244;2022-12-18T02:37:42;97.90;;;43.20;;
22812;SDS011;11573;51.334;3.244;2022-12-18T02:40:11;109.75;;;44.72;;
22812;SDS011;11573;51.334;3.244;2022-12-18T02:42:40;102.07;;;45.92;;
22812;SDS011;11573;51.334;3.244;2022-12-18T02:45:09;97.05;;;44.33;;
22812;SDS011;11573;51.334;3.244;2022-12-18T02:47:38;98.95;;;43.22;;
22812;SDS011;11573;51.334;3.244;2022-12-18T02:55:26;91.68;;;42.92;;
22812;SDS011;11573;51.334;3.244;2022-12-18T02:58:14;97.60;;;42.65;;
22812;SDS011;11573;51.334;3.244;2022-12-18T03:01:19;93.47;;;42.13;;
22812;SDS011;11573;51.334;3.244;2022-12-18T03:06:32;93.70;;;41.85;;
22812;SDS011;11573;51.334;3.244;2022-12-18T03:09:09;111.40;;;48.15;;
22812;SDS011;11573;51.334;3.244;2022-12-18T03:11:41;110.13;;;46.47;;
22812;SDS011;11573;51.334;3.244;2022-12-18T03:14:30;103.10;;;44.85;;
22812;SDS011;11573;51.334;3.244;2022-12-18T03:17:01;98.57;;;46.67;;
22812;SDS011;11573;51.334;3.244;2022-12-18T03:19:32;113.38;;;48.40;;
22812;SDS011;11573;51.334;3.244;2022-12-18T03:22:01;115.50;;;47.97;;
22812;SDS011;11573;51.334;3.244;2022-12-18T03:24:40;116.50;;;49.97;;
22812;SDS011;11573;51.334;3.244;2022-12-18T03:27:11;110.78;;;49.95;;
22812;SDS011;11573;51.334;3.244;2022-12-18T03:29:42;111.93;;;50.58;;
22812;SDS011;11573;51.334;3.244;2022-12-18T03:32:16;117.03;;;51.08;;
22812;SDS011;11573;51.334;3.244;2022-12-18T03:34:53;118.75;;;49.75;;
22812;SDS011;11573;51.334;3.244;2022-12-18T03:37:22;114.50;;;49.30;;
22812;SDS011;11573;51.334;3.244;2022-12-18T03:39:50;111.78;;;50.20;;
22812;SDS011;11573;51.334;3.244;2022-12-18T03:42:37;107.00;;;47.65;;
22812;SDS011;11573;51.334;3.244;2022-12-18T03:53:25;108.65;;;44.40;;
22812;SDS011;11573;51.334;3.244;2022-12-18T03:55:53;101.47;;;44.83;;
22812;SDS011;11573;51.334;3.244;2022-12-18T03:58:25;99.88;;;42.97;;
22812;SDS011;11573;51.334;3.244;2022-12-18T04:01:03;105.57;;;45.35;;
22812;SDS011;11573;51.334;3.244;2022-12-18T04:03:35;103.18;;;44.80;;
22812;SDS011;11573;51.334;3.244;2022-12-18T04:06:05;106.38;;;45.85;;
22812;SDS011;11573;51.334;3.244;2022-12-18T04:08:33;92.90;;;41.97;;
22812;SDS011;11573;51.334;3.244;2022-12-18T04:11:05;94.18;;;42.47;;
22812;SDS011;11573;51.334;3.244;2022-12-18T04:13:34;97.68;;;42.10;;
22812;SDS011;11573;51.334;3.244;2022-12-18T04:16:07;94.97;;;41.17;;
22812;SDS011;11573;51.334;3.244;2022-12-18T04:18:39;95.22;;;40.85;;
22812;SDS011;11573;51.334;3.244;2022-12-18T04:21:07;98.00;;;41.28;;
22812;SDS011;11573;51.334;3.244;2022-12-18T04:23:35;92.32;;;41.22;;
22812;SDS011;11573;51.334;3.244;2022-12-18T04:26:03;89.18;;;37.60;;
22812;SDS011;11573;51.334;3.244;2022-12-18T04:28:49;84.60;;;38.53;;
22812;SDS011;11573;51.334;3.244;2022-12-18T04:31:16;93.65;;;37.75;;
22812;SDS011;11573;51.334;3.244;2022-12-18T04:33:43;93.60;;;39.50;;
22812;SDS011;11573;51.334;3.244;2022-12-18T04:36:10;87.28;;;38.58;;
22812;SDS011;11573;51.334;3.244;2022-12-18T04:38:39;83.60;;;38.00;;
22812;SDS011;11573;51.334;3.244;2022-12-18T04:41:10;101.00;;;40.38;;
22812;SDS011;11573;51.334;3.244;2022-12-18T04:43:41;88.95;;;38.50;;
22812;SDS011;11573;51.334;3.244;2022-12-18T04:46:08;90.40;;;38.60;;
22812;SDS011;11573;51.334;3.244;2022-12-18T04:48:36;80.90;;;37.13;;
22812;SDS011;11573;51.334;3.244;2022-12-18T04:51:04;86.07;;;37.10;;
22812;SDS011;11573;51.334;3.244;2022-12-18T04:53:32;85.07;;;36.95;;
22812;SDS011;11573;51.334;3.244;2022-12-18T04:56:16;88.78;;;38.85;;
22812;SDS011;11573;51.334;3.244;2022-12-18T04:58:44;94.15;;;37.47;;
22812;SDS011;11573;51.334;3.244;2022-12-18T05:01:12;86.35;;;36.15;;
22812;SDS011;11573;51.334;3.244;2022-12-18T05:03:41;79.47;;;36.17;;
22812;SDS011;11573;51.334;3.244;2022-12-18T05:06:09;87.97;;;38.10;;
22812;SDS011;11573;51.334;3.244;2022-12-18T05:08:36;90.38;;;37.90;;
22812;SDS011;11573;51.334;3.244;2022-12-18T05:11:05;87.30;;;39.20;;
22812;SDS011;11573;51.334;3.244;2022-12-18T05:13:34;86.22;;;38.05;;
22812;SDS011;11573;51.334;3.244;2022-12-18T05:16:02;88.25;;;38.45;;
22812;SDS011;11573;51.334;3.244;2022-12-18T05:18:30;93.25;;;39.22;;
22812;SDS011;11573;51.334;3.244;2022-12-18T05:20:57;89.68;;;39.33;;
22812;SDS011;11573;51.334;3.244;2022-12-18T05:23:25;90.30;;;40.28;;
22812;SDS011;11573;51.334;3.244;2022-12-18T05:25:52;77.93;;;39.13;;
22812;SDS011;11573;51.334;3.244;2022-12-18T05:28:21;86.95;;;37.95;;
22812;SDS011;11573;51.334;3.244;2022-12-18T05:30:49;75.97;;;34.17;;
22812;SDS011;11573;51.334;3.244;2022-12-18T05:33:17;82.75;;;34.40;;
22812;SDS011;11573;51.334;3.244;2022-12-18T05:35:49;78.82;;;33.25;;
22812;SDS011;11573;51.334;3.244;2022-12-18T05:38:18;78.18;;;35.92;;
22812;SDS011;11573;51.334;3.244;2022-12-18T05:40:46;76.45;;;33.70;;
22812;SDS011;11573;51.334;3.244;2022-12-18T05:43:14;82.03;;;33.33;;
22812;SDS011;11573;51.334;3.244;2022-12-18T05:45:46;78.13;;;33.63;;
22812;SDS011;11573;51.334;3.244;2022-12-18T05:48:14;72.32;;;32.10;;
22812;SDS011;11573;51.334;3.244;2022-12-18T05:50:43;82.82;;;33.00;;
22812;SDS011;11573;51.334;3.244;2022-12-18T05:53:14;77.32;;;31.88;;
22812;SDS011;11573;51.334;3.244;2022-12-18T05:55:43;71.50;;;30.70;;
22812;SDS011;11573;51.334;3.244;2022-12-18T05:58:13;73.28;;;32.92;;
22812;SDS011;11573;51.334;3.244;2022-12-18T06:00:41;83.25;;;31.98;;
22812;SDS011;11573;51.334;3.244;2022-12-18T06:03:11;69.43;;;31.13;;
22812;SDS011;11573;51.334;3.244;2022-12-18T06:05:40;72.93;;;30.45;;
22812;SDS011;11573;51.334;3.244;2022-12-18T06:08:10;73.90;;;32.20;;
22812;SDS011;11573;51.334;3.244;2022-12-18T06:10:38;71.75;;;31.08;;
22812;SDS011;11573;51.334;3.244;2022-12-18T06:13:05;79.28;;;31.25;;
22812;SDS011;11573;51.334;3.244;2022-12-18T06:15:35;69.53;;;30.17;;
22812;SDS011;11573;51.334;3.244;2022-12-18T06:18:03;72.95;;;31.35;;
22812;SDS011;11573;51.334;3.244;2022-12-18T06:20:30;74.32;;;32.88;;
22812;SDS011;11573;51.334;3.244;2022-12-18T06:22:59;73.20;;;32.15;;
22812;SDS011;11573;51.334;3.244;2022-12-18T06:25:26;70.75;;;30.05;;
22812;SDS011;11573;51.334;3.244;2022-12-18T06:27:53;68.97;;;29.60;;
22812;SDS011;11573;51.334;3.244;2022-12-18T06:30:20;69.13;;;30.42;;
22812;SDS011;11573;51.334;3.244;2022-12-18T06:32:48;63.75;;;29.35;;
22812;SDS011;11573;51.334;3.244;2022-12-18T06:35:21;68.70;;;30.30;;
22812;SDS011;11573;51.334;3.244;2022-12-18T06:37:48;70.53;;;30.50;;
22812;SDS011;11573;51.334;3.244;2022-12-18T06:40:15;75.65;;;30.67;;
22812;SDS011;11573;51.334;3.244;2022-12-18T06:42:42;70.07;;;29.15;;
22812;SDS011;11573;51.334;3.244;2022-12-18T06:45:09;67.68;;;30.05;;
22812;SDS011;11573;51.334;3.244;2022-12-18T06:47:37;75.80;;;32.40;;
22812;SDS011;11573;51.334;3.244;2022-12-18T06:50:04;67.60;;;29.90;;
22812;SDS011;11573;51.334;3.244;2022-12-18T06:52:32;66.30;;;30.45;;
22812;SDS011;11573;51.334;3.244;2022-12-18T06:54:59;68.78;;;28.95;;
22812;SDS011;11573;51.334;3.244;2022-12-18T06:57:26;60.78;;;28.25;;
22812;SDS011;11573;51.334;3.244;2022-12-18T06:59:53;61.22;;;27.48;;
22812;SDS011;11573;51.334;3.244;2022-12-18T07:02:20;67.15;;;28.38;;
22812;SDS011;11573;51.334;3.244;2022-12-18T07:04:47;63.47;;;28.75;;
22812;SDS011;11573;51.334;3.244;2022-12-18T07:07:14;59.83;;;27.55;;
22812;SDS011;11573;51.334;3.244;2022-12-18T07:09:41;62.45;;;28.45;;
22812;SDS011;11573;51.334;3.244;2022-12-18T07:12:08;64.28;;;27.75;;
22812;SDS011;11573;51.334;3.244;2022-12-18T07:14:35;55.25;;;25.58;;
22812;SDS011;11573;51.334;3.244;2022-12-18T07:17:02;61.50;;;26.60;;
22812;SDS011;11573;51.334;3.244;2022-12-18T07:19:29;55.00;;;26.88;;
22812;SDS011;11573;51.334;3.244;2022-12-18T07:21:57;61.67;;;26.92;;
22812;SDS011;11573;51.334;3.244;2022-12-18T07:24:24;51.28;;;24.15;;
22812;SDS011;11573;51.334;3.244;2022-12-18T07:26:51;54.88;;;25.02;;
22812;SDS011;11573;51.334;3.244;2022-12-18T07:29:18;54.35;;;25.35;;
22812;SDS011;11573;51.334;3.244;2022-12-18T07:31:45;51.38;;;23.25;;
22812;SDS011;11573;51.334;3.244;2022-12-18T07:34:12;52.00;;;24.98;;
22812;SDS011;11573;51.334;3.244;2022-12-18T07:36:41;51.53;;;23.88;;
22812;SDS011;11573;51.334;3.244;2022-12-18T07:39:10;55.90;;;25.25;;
22812;SDS011;11573;51.334;3.244;2022-12-18T07:41:37;52.60;;;23.75;;
22812;SDS011;11573;51.334;3.244;2022-12-18T07:44:12;49.20;;;22.90;;
22812;SDS011;11573;51.334;3.244;2022-12-18T07:46:39;48.30;;;23.58;;
22812;SDS011;11573;51.334;3.244;2022-12-18T07:49:06;47.15;;;24.58;;
22812;SDS011;11573;51.334;3.244;2022-12-18T07:51:33;50.47;;;23.63;;
22812;SDS011;11573;51.334;3.244;2022-12-18T07:54:00;48.70;;;23.27;;
22812;SDS011;11573;51.334;3.244;2022-12-18T07:56:27;50.95;;;23.63;;
22812;SDS011;11573;51.334;3.244;2022-12-18T07:58:56;48.40;;;21.67;;
22812;SDS011;11573;51.334;3.244;2022-12-18T08:01:29;54.63;;;23.58;;
22812;SDS011;11573;51.334;3.244;2022-12-18T08:03:56;51.53;;;23.63;;
22812;SDS011;11573;51.334;3.244;2022-12-18T08:06:24;46.35;;;23.55;;
22812;SDS011;11573;51.334;3.244;2022-12-18T08:08:52;46.53;;;23.00;;
22812;SDS011;11573;51.334;3.244;2022-12-18T08:11:20;48.25;;;23.95;;
22812;SDS011;11573;51.334;3.244;2022-12-18T08:13:47;48.35;;;21.70;;
22812;SDS011;11573;51.334;3.244;2022-12-18T08:16:15;44.67;;;22.08;;
22812;SDS011;11573;51.334;3.244;2022-12-18T08:18:42;44.78;;;21.05;;
22812;SDS011;11573;51.334;3.244;2022-12-18T08:21:16;37.30;;;20.02;;
22812;SDS011;11573;51.334;3.244;2022-12-18T08:23:50;47.80;;;21.80;;
22812;SDS011;11573;51.334;3.244;2022-12-18T08:26:19;40.88;;;20.30;;
22812;SDS011;11573;51.334;3.244;2022-12-18T08:28:47;42.53;;;21.30;;
22812;SDS011;11573;51.334;3.244;2022-12-18T08:31:15;41.65;;;20.48;;
22812;SDS011;11573;51.334;3.244;2022-12-18T08:33:43;44.10;;;20.48;;
22812;SDS011;11573;51.334;3.244;2022-12-18T08:36:10;41.40;;;19.52;;
22812;SDS011;11573;51.334;3.244;2022-12-18T08:38:37;38.92;;;18.52;;
22812;SDS011;11573;51.334;3.244;2022-12-18T08:41:05;40.28;;;19.83;;
22812;SDS011;11573;51.334;3.244;2022-12-18T08:43:34;38.35;;;19.17;;
22812;SDS011;11573;51.334;3.244;2022-12-18T08:46:20;35.10;;;19.70;;
22812;SDS011;11573;51.334;3.244;2022-12-18T08:48:50;37.22;;;19.73;;
22812;SDS011;11573;51.334;3.244;2022-12-18T08:51:18;41.00;;;19.88;;
22812;SDS011;11573;51.334;3.244;2022-12-18T08:53:46;40.20;;;20.30;;
22812;SDS011;11573;51.334;3.244;2022-12-18T08:56:13;37.00;;;19.77;;
22812;SDS011;11573;51.334;3.244;2022-12-18T08:58:40;38.15;;;19.67;;
22812;SDS011;11573;51.334;3.244;2022-12-18T09:01:09;37.95;;;19.55;;
22812;SDS011;11573;51.334;3.244;2022-12-18T09:03:38;39.75;;;19.23;;
22812;SDS011;11573;51.334;3.244;2022-12-18T09:06:06;32.35;;;18.88;;
22812;SDS011;11573;51.334;3.244;2022-12-18T09:08:33;33.45;;;18.00;;
22812;SDS011;11573;51.334;3.244;2022-12-18T09:11:00;32.40;;;18.83;;
22812;SDS011;11573;51.334;3.244;2022-12-18T09:13:27;33.00;;;17.92;;
22812;SDS011;11573;51.334;3.244;2022-12-18T09:15:55;32.25;;;18.02;;
22812;SDS011;11573;51.334;3.244;2022-12-18T09:18:22;34.70;;;17.48;;
22812;SDS011;11573;51.334;3.244;2022-12-18T09:20:50;30.75;;;16.35;;
22812;SDS011;11573;51.334;3.244;2022-12-18T09:23:19;30.85;;;17.27;;
22812;SDS011;11573;51.334;3.244;2022-12-18T09:25:48;29.05;;;17.08;;
22812;SDS011;11573;51.334;3.244;2022-12-18T09:28:18;27.95;;;16.13;;
22812;SDS011;11573;51.334;3.244;2022-12-18T09:30:46;30.25;;;16.02;;
22812;SDS011;11573;51.334;3.244;2022-12-18T09:33:15;29.85;;;15.90;;
22812;SDS011;11573;51.334;3.244;2022-12-18T09:35:44;30.85;;;17.33;;
22812;SDS011;11573;51.334;3.244;2022-12-18T09:38:12;29.75;;;15.88;;
22812;SDS011;11573;51.334;3.244;2022-12-18T09:40:43;29.05;;;15.02;;
22812;SDS011;11573;51.334;3.244;2022-12-18T09:43:37;27.35;;;15.75;;
22812;SDS011;11573;51.334;3.244;2022-12-18T09:46:07;31.17;;;15.95;;
22812;SDS011;11573;51.334;3.244;2022-12-18T09:48:40;32.55;;;16.08;;
22812;SDS011;11573;51.334;3.244;2022-12-18T09:51:14;26.67;;;15.20;;
22812;SDS011;11573;51.334;3.244;2022-12-18T09:53:50;28.30;;;15.35;;
22812;SDS011;11573;51.334;3.244;2022-12-18T09:56:21;30.08;;;15.63;;
22812;SDS011;11573;51.334;3.244;2022-12-18T09:58:54;25.88;;;15.00;;
22812;SDS011;11573;51.334;3.244;2022-12-18T10:01:26;28.73;;;14.65;;
22812;SDS011;11573;51.334;3.244;2022-12-18T10:04:07;25.65;;;15.73;;
22812;SDS011;11573;51.334;3.244;2022-12-18T10:06:41;25.63;;;14.80;;
22812;SDS011;11573;51.334;3.244;2022-12-18T10:14:57;26.88;;;15.48;;
22812;SDS011;11573;51.334;3.244;2022-12-18T10:17:36;27.35;;;15.00;;
22812;SDS011;11573;51.334;3.244;2022-12-18T10:26:03;24.75;;;14.75;;
22812;SDS011;11573;51.334;3.244;2022-12-18T10:28:36;24.95;;;13.40;;
22812;SDS011;11573;51.334;3.244;2022-12-18T10:31:22;24.52;;;15.15;;
22812;SDS011;11573;51.334;3.244;2022-12-18T10:33:50;22.77;;;13.13;;
22812;SDS011;11573;51.334;3.244;2022-12-18T10:36:22;26.25;;;14.18;;
22812;SDS011;11573;51.334;3.244;2022-12-18T10:38:51;24.33;;;14.02;;
22812;SDS011;11573;51.334;3.244;2022-12-18T10:43:47;21.77;;;13.57;;
22812;SDS011;11573;51.334;3.244;2022-12-18T10:46:15;25.27;;;13.82;;
22812;SDS011;11573;51.334;3.244;2022-12-18T10:51:20;24.00;;;14.32;;
22812;SDS011;11573;51.334;3.244;2022-12-18T10:53:54;23.05;;;13.93;;
22812;SDS011;11573;51.334;3.244;2022-12-18T10:56:24;24.40;;;14.52;;
22812;SDS011;11573;51.334;3.244;2022-12-18T10:58:57;23.50;;;14.10;;
22812;SDS011;11573;51.334;3.244;2022-12-18T11:04:23;22.00;;;13.73;;
22812;SDS011;11573;51.334;3.244;2022-12-18T11:07:04;24.20;;;14.43;;
22812;SDS011;11573;51.334;3.244;2022-12-18T11:09:34;21.23;;;13.70;;
22812;SDS011;11573;51.334;3.244;2022-12-18T11:12:13;21.13;;;13.60;;
22812;SDS011;11573;51.334;3.244;2022-12-18T11:14:50;24.83;;;14.45;;
22812;SDS011;11573;51.334;3.244;2022-12-18T11:17:19;23.70;;;14.38;;
22812;SDS011;11573;51.334;3.244;2022-12-18T11:19:53;24.83;;;14.43;;
22812;SDS011;11573;51.334;3.244;2022-12-18T11:22:32;24.88;;;14.75;;
22812;SDS011;11573;51.334;3.244;2022-12-18T11:25:02;26.65;;;15.27;;
22812;SDS011;11573;51.334;3.244;2022-12-18T11:27:59;29.10;;;16.27;;
22812;SDS011;11573;51.334;3.244;2022-12-18T11:32:58;24.73;;;14.45;;
22812;SDS011;11573;51.334;3.244;2022-12-18T11:35:39;25.35;;;13.95;;
22812;SDS011;11573;51.334;3.244;2022-12-18T11:41:41;26.80;;;15.43;;
22812;SDS011;11573;51.334;3.244;2022-12-18T11:43:48;27.95;;;16.58;;
22812;SDS011;11573;51.334;3.244;2022-12-18T11:46:29;24.83;;;14.88;;
22812;SDS011;11573;51.334;3.244;2022-12-18T11:49:03;27.48;;;15.40;;
22812;SDS011;11573;51.334;3.244;2022-12-18T11:56:50;25.20;;;14.45;;
22812;SDS011;11573;51.334;3.244;2022-12-18T11:59:43;28.98;;;15.80;;
22812;SDS011;11573;51.334;3.244;2022-12-18T12:02:26;27.10;;;15.05;;
22812;SDS011;11573;51.334;3.244;2022-12-18T12:10:40;31.92;;;17.00;;
22812;SDS011;11573;51.334;3.244;2022-12-18T12:20:53;27.60;;;16.83;;
22812;SDS011;11573;51.334;3.244;2022-12-18T12:26:16;30.00;;;17.58;;
22812;SDS011;11573;51.334;3.244;2022-12-18T12:32:22;31.38;;;17.98;;
22812;SDS011;11573;51.334;3.244;2022-12-18T12:39:58;36.97;;;19.35;;
22812;SDS011;11573;51.334;3.244;2022-12-18T12:42:50;32.38;;;18.52;;
22812;SDS011;11573;51.334;3.244;2022-12-18T12:45:45;35.47;;;19.42;;
22812;SDS011;11573;51.334;3.244;2022-12-18T12:51:11;33.88;;;19.73;;
22812;SDS011;11573;51.334;3.244;2022-12-18T12:53:45;35.90;;;20.17;;
22812;SDS011;11573;51.334;3.244;2022-12-18T12:56:13;37.55;;;20.35;;
22812;SDS011;11573;51.334;3.244;2022-12-18T12:58:54;36.17;;;21.23;;
22812;SDS011;11573;51.334;3.244;2022-12-18T13:01:41;38.58;;;20.35;;
22812;SDS011;11573;51.334;3.244;2022-12-18T13:04:36;39.80;;;22.45;;
22812;SDS011;11573;51.334;3.244;2022-12-18T13:07:35;42.63;;;22.77;;
22812;SDS011;11573;51.334;3.244;2022-12-18T13:12:56;40.97;;;23.45;;
22812;SDS011;11573;51.334;3.244;2022-12-18T13:20:38;37.47;;;22.45;;
22812;SDS011;11573;51.334;3.244;2022-12-18T13:23:36;38.33;;;23.50;;
22812;SDS011;11573;51.334;3.244;2022-12-18T13:31:14;42.97;;;23.67;;
22812;SDS011;11573;51.334;3.244;2022-12-18T13:34:18;42.90;;;23.55;;
22812;SDS011;11573;51.334;3.244;2022-12-18T13:36:55;42.33;;;22.70;;
22812;SDS011;11573;51.334;3.244;2022-12-18T13:39:38;45.17;;;23.85;;
22812;SDS011;11573;51.334;3.244;2022-12-18T13:44:33;44.28;;;24.70;;
22812;SDS011;11573;51.334;3.244;2022-12-18T13:47:25;31.27;;;18.37;;
22812;SDS011;11573;51.334;3.244;2022-12-18T13:50:00;45.05;;;25.88;;
22812;SDS011;11573;51.334;3.244;2022-12-18T13:52:47;49.70;;;25.60;;
22812;SDS011;11573;51.334;3.244;2022-12-18T13:55:16;45.03;;;24.27;;
22812;SDS011;11573;51.334;3.244;2022-12-18T13:57:46;45.30;;;25.70;;
22812;SDS011;11573;51.334;3.244;2022-12-18T14:00:27;45.20;;;25.58;;
22812;SDS011;11573;51.334;3.244;2022-12-18T14:02:59;43.58;;;25.15;;
22812;SDS011;11573;51.334;3.244;2022-12-18T14:07:54;42.85;;;24.35;;
22812;SDS011;11573;51.334;3.244;2022-12-18T14:10:25;45.17;;;24.73;;
22812;SDS011;11573;51.334;3.244;2022-12-18T14:13:15;50.67;;;25.75;;
22812;SDS011;11573;51.334;3.244;2022-12-18T14:15:54;48.72;;;26.90;;
22812;SDS011;11573;51.334;3.244;2022-12-18T14:18:34;48.75;;;26.35;;
22812;SDS011;11573;51.334;3.244;2022-12-18T14:21:04;46.13;;;25.48;;
22812;SDS011;11573;51.334;3.244;2022-12-18T14:23:37;46.97;;;26.35;;
22812;SDS011;11573;51.334;3.244;2022-12-18T14:31:45;54.20;;;26.98;;
22812;SDS011;11573;51.334;3.244;2022-12-18T14:34:15;48.22;;;25.60;;
22812;SDS011;11573;51.334;3.244;2022-12-18T14:36:51;49.85;;;26.05;;
22812;SDS011;11573;51.334;3.244;2022-12-18T14:39:20;52.25;;;27.52;;
22812;SDS011;11573;51.334;3.244;2022-12-18T14:41:51;46.47;;;26.55;;
22812;SDS011;11573;51.334;3.244;2022-12-18T14:44:18;51.10;;;26.65;;
22812;SDS011;11573;51.334;3.244;2022-12-18T14:46:45;52.28;;;27.73;;
22812;SDS011;11573;51.334;3.244;2022-12-18T14:52:03;52.78;;;28.05;;
22812;SDS011;11573;51.334;3.244;2022-12-18T14:54:33;53.53;;;28.00;;
22812;SDS011;11573;51.334;3.244;2022-12-18T14:57:04;48.97;;;26.73;;
22812;SDS011;11573;51.334;3.244;2022-12-18T14:59:44;50.53;;;26.58;;
22812;SDS011;11573;51.334;3.244;2022-12-18T15:02:15;50.95;;;26.70;;
22812;SDS011;11573;51.334;3.244;2022-12-18T15:05:04;54.63;;;28.05;;
22812;SDS011;11573;51.334;3.244;2022-12-18T15:07:46;50.80;;;26.02;;
22812;SDS011;11573;51.334;3.244;2022-12-18T15:10:16;50.47;;;26.45;;
22812;SDS011;11573;51.334;3.244;2022-12-18T15:26:08;51.65;;;25.00;;
22812;SDS011;11573;51.334;3.244;2022-12-18T15:28:44;48.20;;;25.90;;
22812;SDS011;11573;51.334;3.244;2022-12-18T15:33:41;60.67;;;29.52;;
22812;SDS011;11573;51.334;3.244;2022-12-18T15:36:13;56.03;;;26.63;;
22812;SDS011;11573;51.334;3.244;2022-12-18T15:38:46;58.70;;;26.55;;
22812;SDS011;11573;51.334;3.244;2022-12-18T15:41:15;59.35;;;30.90;;
22812;SDS011;11573;51.334;3.244;2022-12-18T15:43:50;58.95;;;33.90;;
22812;SDS011;11573;51.334;3.244;2022-12-18T15:46:22;52.67;;;27.05;;
22812;SDS011;11573;51.334;3.244;2022-12-18T15:48:52;51.13;;;26.98;;
22812;SDS011;11573;51.334;3.244;2022-12-18T15:51:28;51.60;;;25.63;;
22812;SDS011;11573;51.334;3.244;2022-12-18T15:54:02;58.33;;;30.98;;
22812;SDS011;11573;51.334;3.244;2022-12-18T15:56:31;51.33;;;26.48;;
22812;SDS011;11573;51.334;3.244;2022-12-18T15:59:17;57.70;;;29.23;;
22812;SDS011;11573;51.334;3.244;2022-12-18T16:01:47;79.55;;;33.08;;
22812;SDS011;11573;51.334;3.244;2022-12-18T16:04:18;52.47;;;27.08;;
22812;SDS011;11573;51.334;3.244;2022-12-18T16:06:49;56.40;;;25.80;;
22812;SDS011;11573;51.334;3.244;2022-12-18T16:09:38;65.13;;;32.92;;
22812;SDS011;11573;51.334;3.244;2022-12-18T16:12:06;57.60;;;30.55;;
22812;SDS011;11573;51.334;3.244;2022-12-18T16:14:39;53.63;;;28.35;;
22812;SDS011;11573;51.334;3.244;2022-12-18T16:17:08;50.25;;;25.10;;
22812;SDS011;11573;51.334;3.244;2022-12-18T16:19:37;52.45;;;26.10;;
22812;SDS011;11573;51.334;3.244;2022-12-18T16:22:04;49.72;;;25.23;;
22812;SDS011;11573;51.334;3.244;2022-12-18T16:24:44;58.17;;;26.60;;
22812;SDS011;11573;51.334;3.244;2022-12-18T16:27:11;54.42;;;26.77;;
22812;SDS011;11573;51.334;3.244;2022-12-18T16:29:38;53.80;;;27.35;;
22812;SDS011;11573;51.334;3.244;2022-12-18T16:32:05;51.00;;;27.50;;
22812;SDS011;11573;51.334;3.244;2022-12-18T16:34:32;60.70;;;28.75;;
22812;SDS011;11573;51.334;3.244;2022-12-18T16:37:02;62.08;;;30.02;;
22812;SDS011;11573;51.334;3.244;2022-12-18T16:39:32;62.45;;;29.13;;
22812;SDS011;11573;51.334;3.244;2022-12-18T16:42:01;59.22;;;27.92;;
22812;SDS011;11573;51.334;3.244;2022-12-18T16:44:32;60.63;;;28.73;;
22812;SDS011;11573;51.334;3.244;2022-12-18T16:46:59;57.20;;;27.67;;
22812;SDS011;11573;51.334;3.244;2022-12-18T16:49:28;56.85;;;28.70;;
22812;SDS011;11573;51.334;3.244;2022-12-18T16:51:56;57.55;;;27.60;;
22812;SDS011;11573;51.334;3.244;2022-12-18T16:54:23;57.42;;;29.45;;
22812;SDS011;11573;51.334;3.244;2022-12-18T16:56:50;55.20;;;28.27;;